createdAt,value
2019-03-18T00:00:13.594Z,161.20
2019-03-18T00:02:42.343Z,160.27
2019-03-18T00:05:10.659Z,162.43
2019-03-18T00:07:39.035Z,161.40
2019-03-18T00:10:08.408Z,166.83
2019-03-18T00:12:36.999Z,168.37
2019-03-18T00:15:10.858Z,165.03
2019-03-18T00:17:39.588Z,163.63
2019-03-18T00:20:09.283Z,164.30
2019-03-18T00:22:37.887Z,155.07
2019-03-18T00:25:09.758Z,157.40
2019-03-18T00:27:41.037Z,159.47
2019-03-18T00:30:14.692Z,149.73
2019-03-18T00:32:43.382Z,146.03
2019-03-18T00:35:11.730Z,142.37
2019-03-18T00:37:40.030Z,144.33
2019-03-18T00:40:19.002Z,136.07
2019-03-18T00:42:47.646Z,137.90
2019-03-18T00:45:16.003Z,133.60
2019-03-18T00:47:44.443Z,136.90
2019-03-18T00:50:16.478Z,131.00
2019-03-18T00:52:44.775Z,134.90
2019-03-18T00:55:13.065Z,130.23
2019-03-18T00:57:41.714Z,133.60
2019-03-18T01:00:15.814Z,128.67
2019-03-18T01:02:44.504Z,124.93
2019-03-18T01:05:13.098Z,126.60
2019-03-18T01:07:41.479Z,123.27
2019-03-18T01:10:16.762Z,124.87
2019-03-18T01:12:45.075Z,124.77
2019-03-18T01:15:26.795Z,120.00
2019-03-18T01:17:44.502Z,119.70
2019-03-18T01:20:13.833Z,116.53
2019-03-18T01:22:42.508Z,113.10
2019-03-18T01:25:11.294Z,115.83
2019-03-18T01:27:40.072Z,112.80
2019-03-18T01:30:10.949Z,115.07
2019-03-18T01:32:39.251Z,108.30
2019-03-18T01:35:09.390Z,108.17
2019-03-18T01:37:37.679Z,106.10
2019-03-18T01:40:08.793Z,107.23
2019-03-18T01:42:37.420Z,105.17
2019-03-18T01:45:06.938Z,101.37
2019-03-18T01:47:35.610Z,100.07
2019-03-18T01:50:06.050Z,95.07
2019-03-18T01:52:34.353Z,96.50
2019-03-18T01:55:04.579Z,96.63
2019-03-18T01:57:32.901Z,100.67
2019-03-18T02:00:01.610Z,94.50
2019-03-18T02:02:31.555Z,90.87
2019-03-18T02:04:59.884Z,90.60
2019-03-18T02:07:28.209Z,95.30
2019-03-18T02:09:56.578Z,87.37
2019-03-18T02:12:24.963Z,88.17
2019-03-18T02:14:53.259Z,87.00
2019-03-18T02:17:21.891Z,86.87
2019-03-18T02:19:50.195Z,85.00
2019-03-18T02:22:18.750Z,83.20
2019-03-18T02:24:47.337Z,83.87
2019-03-18T02:27:15.633Z,80.43
2019-03-18T02:29:44.506Z,82.30
2019-03-18T02:32:12.812Z,81.40
2019-03-18T02:34:41.190Z,82.03
2019-03-18T02:37:09.486Z,76.60
2019-03-18T02:39:38.114Z,78.43
2019-03-18T02:42:06.703Z,75.97
2019-03-18T02:44:35.010Z,75.20
2019-03-18T02:47:05.288Z,69.50
2019-03-18T02:49:33.331Z,68.13
2019-03-18T02:52:01.635Z,68.97
2019-03-18T02:54:30.058Z,78.37
2019-03-18T02:56:58.366Z,79.77
2019-03-18T02:59:28.283Z,90.90
2019-03-18T03:01:56.931Z,83.90
2019-03-18T03:04:25.322Z,83.43
2019-03-18T03:06:53.695Z,86.60
2019-03-18T03:09:21.990Z,84.63
2019-03-18T03:11:50.751Z,83.10
2019-03-18T03:14:19.043Z,77.80
2019-03-18T03:16:47.597Z,77.40
2019-03-18T03:19:15.914Z,79.77
2019-03-18T03:21:44.190Z,79.93
2019-03-18T03:24:12.839Z,77.30
2019-03-18T03:26:41.155Z,73.87
2019-03-18T03:29:09.798Z,72.47
2019-03-18T03:31:38.216Z,72.67
2019-03-18T03:34:12.928Z,80.73
2019-03-18T03:36:36.640Z,81.43
2019-03-18T03:39:06.320Z,76.63
2019-03-18T03:41:34.620Z,78.93
2019-03-18T03:44:05.770Z,74.07
2019-03-18T03:46:43.070Z,72.17
2019-03-18T03:49:04.403Z,71.30
2019-03-18T03:51:32.723Z,74.17
2019-03-18T03:54:01.272Z,67.37
2019-03-18T03:56:29.550Z,68.07
2019-03-18T03:58:58.127Z,79.13
2019-03-18T04:01:29.506Z,76.30
2019-03-18T04:03:56.828Z,85.07
2019-03-18T04:06:25.135Z,75.73
2019-03-18T04:08:53.419Z,78.93
2019-03-18T04:11:21.792Z,75.23
2019-03-18T04:13:50.087Z,70.63
2019-03-18T04:16:19.883Z,73.13
2019-03-18T04:18:48.163Z,76.47
2019-03-18T04:21:16.712Z,71.47
2019-03-18T04:23:45.066Z,72.70
2019-03-18T04:26:13.376Z,70.80
2019-03-18T04:28:41.688Z,69.43
2019-03-18T04:31:10.336Z,71.47
2019-03-18T04:33:39.258Z,65.30
2019-03-18T04:36:07.887Z,63.50
2019-03-18T04:38:36.492Z,60.50
2019-03-18T04:41:04.789Z,61.93
2019-03-18T04:43:33.354Z,72.80
2019-03-18T04:46:02.041Z,71.70
2019-03-18T04:48:30.403Z,64.47
2019-03-18T04:50:58.693Z,69.97
2019-03-18T04:53:26.982Z,70.17
2019-03-18T04:55:55.551Z,68.27
2019-03-18T04:58:24.141Z,70.80
2019-03-18T05:00:52.722Z,63.83
2019-03-18T05:03:21.046Z,65.73
2019-03-18T05:05:49.783Z,62.30
2019-03-18T05:08:18.367Z,63.63
2019-03-18T05:10:46.660Z,64.10
2019-03-18T05:13:16.583Z,61.00
2019-03-18T05:15:44.953Z,61.83
2019-03-18T05:18:13.533Z,62.17
2019-03-18T05:20:41.814Z,58.53
2019-03-18T05:23:10.386Z,57.83
2019-03-18T05:25:38.967Z,57.27
2019-03-18T05:28:07.552Z,58.53
2019-03-18T05:30:36.085Z,57.60
2019-03-18T05:33:04.730Z,54.80
2019-03-18T05:35:33.303Z,56.03
2019-03-18T05:38:01.600Z,52.80
2019-03-18T05:40:30.235Z,49.70
2019-03-18T05:42:58.966Z,49.80
2019-03-18T05:45:27.535Z,49.80
2019-03-18T05:47:56.114Z,64.50
2019-03-18T05:50:24.398Z,83.37
2019-03-18T05:52:52.982Z,85.93
2019-03-18T05:55:23.199Z,74.13
2019-03-18T05:57:51.510Z,79.10
2019-03-18T06:00:22.621Z,87.60
2019-03-18T06:02:51.210Z,77.43
2019-03-18T06:05:19.794Z,80.63
2019-03-18T06:07:48.133Z,83.83
2019-03-18T06:10:16.770Z,96.57
2019-03-18T06:12:45.051Z,94.63
2019-03-18T06:15:13.533Z,98.77
2019-03-18T06:17:51.652Z,97.20
2019-03-18T06:20:12.169Z,97.20
2019-03-18T06:22:42.982Z,94.37
2019-03-18T06:25:11.641Z,91.83
2019-03-18T06:27:40.003Z,121.77
2019-03-18T06:30:10.928Z,148.43
2019-03-18T06:32:39.639Z,143.30
2019-03-18T06:35:11.115Z,120.70
2019-03-18T06:37:39.778Z,116.97
2019-03-18T06:40:11.067Z,154.07
2019-03-18T06:42:39.378Z,144.67
2019-03-18T06:45:12.535Z,144.53
2019-03-18T06:47:40.871Z,137.33
2019-03-18T06:50:11.365Z,142.50
2019-03-18T06:52:39.662Z,133.27
2019-03-18T06:55:08.214Z,125.43
2019-03-18T06:57:36.546Z,130.83
2019-03-18T07:00:13.410Z,154.10
2019-03-18T07:02:43.373Z,142.97
2019-03-18T07:05:11.846Z,140.93
2019-03-18T07:07:40.512Z,135.23
2019-03-18T07:10:11.694Z,107.73
2019-03-18T07:12:40.009Z,114.30
2019-03-18T07:15:08.836Z,122.70
2019-03-18T07:17:37.912Z,118.53
2019-03-18T07:20:10.079Z,116.43
2019-03-18T07:22:38.760Z,118.70
2019-03-18T07:25:07.852Z,118.63
2019-03-18T07:27:36.134Z,111.20
2019-03-18T07:30:09.647Z,111.97
2019-03-18T07:32:38.208Z,111.87
2019-03-18T07:35:06.932Z,103.57
2019-03-18T07:37:35.586Z,104.50
2019-03-18T07:40:06.835Z,100.23
2019-03-18T07:42:35.516Z,102.63
2019-03-18T07:45:06.357Z,103.43
2019-03-18T07:47:34.715Z,96.30
2019-03-18T07:50:03.187Z,97.97
2019-03-18T07:52:31.489Z,99.53
2019-03-18T07:54:59.768Z,95.37
2019-03-18T07:57:28.070Z,97.10
2019-03-18T07:59:56.358Z,91.60
2019-03-18T08:02:24.667Z,95.27
2019-03-18T08:04:53.007Z,93.23
2019-03-18T08:07:21.754Z,91.40
2019-03-18T08:09:50.060Z,90.77
2019-03-18T08:12:18.359Z,87.53
2019-03-18T08:14:46.885Z,87.63
2019-03-18T08:17:15.483Z,82.50
2019-03-18T08:19:43.770Z,85.10
2019-03-18T08:22:12.551Z,80.30
2019-03-18T08:24:40.851Z,82.23
2019-03-18T08:27:09.412Z,80.00
2019-03-18T08:29:37.724Z,80.03
2019-03-18T08:32:06.014Z,78.03
2019-03-18T08:34:34.657Z,77.27
2019-03-18T08:37:03.222Z,73.93
2019-03-18T08:39:31.527Z,76.87
2019-03-18T08:42:00.088Z,74.93
2019-03-18T08:44:28.390Z,71.70
2019-03-18T08:46:59.389Z,72.77
2019-03-18T08:49:27.706Z,69.57
2019-03-18T08:51:57.655Z,69.80
2019-03-18T08:54:26.291Z,67.57
2019-03-18T08:56:54.591Z,67.00
2019-03-18T08:59:23.146Z,66.60
2019-03-18T09:01:51.731Z,66.00
2019-03-18T09:04:20.035Z,65.67
2019-03-18T09:06:51.245Z,60.03
2019-03-18T09:09:19.535Z,66.33
2019-03-18T09:11:47.855Z,62.73
2019-03-18T09:14:16.154Z,68.63
2019-03-18T09:16:44.786Z,83.37
2019-03-18T09:19:13.346Z,97.07
2019-03-18T09:21:41.956Z,134.93
2019-03-18T09:24:10.532Z,125.03
2019-03-18T09:26:38.849Z,118.47
2019-03-18T09:29:07.179Z,120.20
2019-03-18T09:31:38.588Z,114.63
2019-03-18T09:34:06.958Z,109.53
2019-03-18T09:36:35.363Z,110.17
2019-03-18T09:39:07.145Z,112.83
2019-03-18T09:41:35.723Z,121.63
2019-03-18T09:44:04.031Z,131.00
2019-03-18T09:46:32.400Z,150.50
2019-03-18T09:49:00.716Z,146.53
2019-03-18T09:51:29.345Z,154.53
2019-03-18T09:53:57.637Z,155.63
2019-03-18T09:56:26.207Z,166.40
2019-03-18T09:58:54.493Z,159.70
2019-03-18T10:01:22.812Z,160.13
2019-03-18T10:03:52.811Z,150.30
2019-03-18T10:06:21.874Z,158.03
2019-03-18T10:08:50.458Z,150.63
2019-03-18T10:11:18.752Z,158.77
2019-03-18T10:13:48.863Z,156.10
2019-03-18T10:16:17.150Z,149.10
2019-03-18T10:18:45.814Z,151.57
2019-03-18T10:21:14.107Z,144.90
2019-03-18T10:23:42.411Z,145.03
2019-03-18T10:26:10.702Z,146.93
2019-03-18T10:28:39.335Z,140.97
2019-03-18T10:31:07.635Z,142.17
2019-03-18T10:33:35.931Z,138.00
2019-03-18T10:36:04.569Z,141.43
2019-03-18T10:38:33.152Z,133.17
2019-03-18T10:41:03.533Z,123.10
2019-03-18T10:43:32.163Z,129.07
2019-03-18T10:46:00.451Z,133.83
2019-03-18T10:48:28.759Z,131.30
2019-03-18T10:50:57.066Z,133.93
2019-03-18T10:53:25.349Z,130.37
2019-03-18T10:55:53.709Z,133.43
2019-03-18T10:58:22.351Z,135.97
2019-03-18T11:00:50.643Z,125.57
2019-03-18T11:03:18.935Z,119.57
2019-03-18T11:05:47.481Z,121.17
2019-03-18T11:08:15.805Z,114.70
2019-03-18T11:10:44.438Z,113.73
2019-03-18T11:13:13.023Z,114.67
2019-03-18T11:15:41.327Z,112.43
2019-03-18T11:18:09.877Z,109.73
2019-03-18T11:20:38.189Z,105.50
2019-03-18T11:23:06.838Z,107.23
2019-03-18T11:25:35.126Z,104.43
2019-03-18T11:28:03.435Z,109.30
2019-03-18T11:30:31.727Z,105.23
2019-03-18T11:33:00.031Z,99.00
2019-03-18T11:35:28.645Z,96.60
2019-03-18T11:37:57.426Z,95.73
2019-03-18T11:40:25.747Z,91.30
2019-03-18T11:42:54.382Z,88.17
2019-03-18T11:45:22.671Z,85.57
2019-03-18T11:47:51.268Z,89.77
2019-03-18T11:50:21.467Z,86.30
2019-03-18T11:52:50.050Z,77.97
2019-03-18T11:55:25.873Z,78.93
2019-03-18T11:57:54.163Z,90.07
2019-03-18T12:00:23.503Z,105.93
2019-03-18T12:02:52.066Z,99.90
2019-03-18T12:05:24.701Z,113.37
2019-03-18T12:07:53.059Z,105.93
2019-03-18T12:10:25.093Z,98.30
2019-03-18T12:12:54.152Z,95.77
2019-03-18T12:15:24.619Z,102.07
2019-03-18T12:17:52.963Z,100.13
2019-03-18T12:20:24.819Z,92.57
2019-03-18T12:22:51.894Z,86.27
2019-03-18T12:25:21.831Z,90.33
2019-03-18T12:27:50.459Z,85.23
2019-03-18T12:30:22.967Z,93.17
2019-03-18T12:32:53.638Z,93.57
2019-03-18T12:35:21.653Z,102.13
2019-03-18T12:37:50.264Z,104.00
2019-03-18T12:40:18.581Z,114.77
2019-03-18T12:42:47.326Z,109.03
2019-03-18T12:45:22.086Z,108.27
2019-03-18T12:47:50.411Z,111.87
2019-03-18T12:50:38.436Z,113.13
2019-03-18T12:52:53.131Z,108.17
2019-03-18T12:55:21.434Z,109.47
2019-03-18T12:57:49.997Z,108.37
2019-03-18T13:00:24.535Z,104.20
2019-03-18T13:02:54.834Z,99.87
2019-03-18T13:05:23.152Z,100.17
2019-03-18T13:07:51.476Z,101.17
2019-03-18T13:10:21.822Z,96.43
2019-03-18T13:12:50.426Z,96.70
2019-03-18T13:15:19.390Z,92.30
2019-03-18T13:17:47.980Z,86.20
2019-03-18T13:20:20.362Z,86.07
2019-03-18T13:22:53.884Z,95.53
2019-03-18T13:25:24.990Z,100.00
2019-03-18T13:27:53.334Z,105.03
2019-03-18T13:30:23.410Z,109.53
2019-03-18T13:32:51.902Z,100.47
2019-03-18T13:35:20.196Z,111.30
2019-03-18T13:37:48.502Z,113.23
2019-03-18T13:40:17.736Z,112.93
2019-03-18T13:42:46.410Z,114.07
2019-03-18T13:45:23.009Z,109.93
2019-03-18T13:47:51.313Z,137.97
2019-03-18T13:50:20.758Z,178.50
2019-03-18T13:52:49.351Z,221.97
2019-03-18T13:55:17.931Z,201.20
2019-03-18T13:57:46.517Z,177.17
2019-03-18T14:00:22.727Z,142.20
2019-03-18T14:02:51.363Z,135.90
2019-03-18T14:05:19.669Z,127.63
2019-03-18T14:07:59.576Z,125.50
2019-03-18T14:10:23.258Z,187.37
2019-03-18T14:12:51.560Z,154.27
2019-03-18T14:15:21.279Z,146.50
2019-03-18T14:17:49.825Z,140.67
2019-03-18T14:20:26.299Z,127.73
2019-03-18T14:22:54.992Z,125.10
2019-03-18T14:25:23.295Z,130.10
2019-03-18T14:27:51.951Z,145.77
2019-03-18T14:30:21.554Z,144.73
2019-03-18T14:32:53.219Z,153.70
2019-03-18T14:35:22.090Z,141.83
2019-03-18T14:37:51.055Z,152.50
2019-03-18T14:40:21.830Z,147.93
2019-03-18T14:42:50.575Z,144.97
2019-03-18T14:45:20.302Z,146.10
2019-03-18T14:47:48.915Z,136.67
2019-03-18T14:50:17.864Z,132.33
2019-03-18T14:52:47.018Z,130.43
2019-03-18T14:55:18.872Z,132.40
2019-03-18T14:57:47.438Z,135.17
2019-03-18T15:00:24.222Z,135.83
2019-03-18T15:02:52.802Z,131.83
2019-03-18T15:05:21.089Z,219.70
2019-03-18T15:07:49.398Z,174.87
2019-03-18T15:10:19.784Z,138.23
2019-03-18T15:12:48.113Z,127.13
2019-03-18T15:15:17.642Z,141.93
2019-03-18T15:17:46.467Z,156.57
2019-03-18T15:20:16.890Z,180.67
2019-03-18T15:22:45.466Z,164.93
2019-03-18T15:25:20.225Z,137.37
2019-03-18T15:27:48.586Z,129.87
2019-03-18T15:30:19.083Z,132.60
2019-03-18T15:32:47.654Z,130.03
2019-03-18T15:35:17.255Z,121.07
2019-03-18T15:37:45.553Z,121.07
2019-03-18T15:40:16.526Z,113.63
2019-03-18T15:42:44.819Z,111.40
2019-03-18T15:45:15.734Z,110.23
2019-03-18T15:47:46.878Z,122.60
2019-03-18T15:50:20.864Z,148.83
2019-03-18T15:52:49.191Z,142.30
2019-03-18T15:55:17.841Z,209.10
2019-03-18T15:57:46.442Z,154.53
2019-03-18T16:00:17.162Z,154.13
2019-03-18T16:02:45.485Z,159.70
2019-03-18T16:05:14.203Z,153.50
2019-03-18T16:07:42.529Z,145.67
2019-03-18T16:10:14.364Z,133.93
2019-03-18T16:12:42.730Z,139.17
2019-03-18T16:15:13.106Z,137.00
2019-03-18T16:17:41.863Z,150.63
2019-03-18T16:20:26.849Z,151.37
2019-03-18T16:22:55.413Z,153.03
2019-03-18T16:25:23.984Z,152.17
2019-03-18T16:27:54.568Z,148.67
2019-03-18T16:30:23.052Z,137.57
2019-03-18T16:32:51.699Z,133.30
2019-03-18T16:35:20.112Z,134.03
2019-03-18T16:37:48.407Z,127.53
2019-03-18T16:40:23.470Z,137.40
2019-03-18T16:42:52.162Z,130.77
2019-03-18T16:45:21.058Z,127.23
2019-03-18T16:47:49.366Z,124.30
2019-03-18T16:50:26.889Z,125.43
2019-03-18T16:52:55.267Z,123.33
2019-03-18T16:55:23.556Z,116.83
2019-03-18T16:57:51.878Z,122.20
2019-03-18T17:00:24.121Z,120.43
2019-03-18T17:02:52.505Z,150.10
2019-03-18T17:05:20.825Z,148.57
2019-03-18T17:07:49.588Z,177.20
2019-03-18T17:10:19.906Z,181.90
2019-03-18T17:12:48.583Z,191.97
2019-03-18T17:15:18.141Z,191.37
2019-03-18T17:17:46.527Z,184.60
2019-03-18T17:20:15.975Z,180.63
2019-03-18T17:22:49.394Z,174.63
2019-03-18T17:25:22.307Z,171.40
2019-03-18T17:27:50.607Z,167.97
2019-03-18T17:30:19.679Z,165.50
2019-03-18T17:32:48.058Z,163.17
2019-03-18T17:35:16.725Z,174.47
2019-03-18T17:37:47.518Z,179.47
2019-03-18T17:40:19.599Z,194.87
2019-03-18T17:42:48.185Z,203.10
2019-03-18T17:45:19.651Z,197.13
2019-03-18T17:47:48.323Z,196.53
2019-03-18T17:50:27.442Z,195.17
2019-03-18T17:53:03.026Z,212.83
2019-03-18T17:55:28.853Z,209.10
2019-03-18T17:57:57.623Z,238.07
2019-03-18T18:00:27.666Z,262.13
2019-03-18T18:02:59.063Z,286.37
2019-03-18T18:05:27.767Z,277.87
2019-03-18T18:07:57.721Z,291.90
2019-03-18T18:10:26.976Z,268.00
2019-03-18T18:12:55.321Z,270.53
2019-03-18T18:15:24.033Z,277.43
2019-03-18T18:17:52.619Z,268.03
2019-03-18T18:20:21.211Z,260.93
2019-03-18T18:22:49.598Z,265.63
2019-03-18T18:25:17.968Z,251.00
2019-03-18T18:27:46.540Z,231.00
2019-03-18T18:30:16.257Z,232.20
2019-03-18T18:32:44.846Z,234.50
2019-03-18T18:35:13.654Z,247.93
2019-03-18T18:37:42.313Z,238.50
2019-03-18T18:40:16.075Z,237.57
2019-03-18T18:42:44.382Z,230.90
2019-03-18T18:45:13.290Z,228.03
2019-03-18T18:47:41.849Z,234.93
2019-03-18T18:50:11.306Z,267.93
2019-03-18T18:52:39.623Z,274.47
2019-03-18T18:55:14.270Z,264.60
2019-03-18T18:57:43.451Z,240.20
2019-03-18T19:00:20.049Z,241.53
2019-03-18T19:02:51.703Z,237.50
2019-03-18T19:05:20.005Z,236.70
2019-03-18T19:07:48.673Z,235.90
2019-03-18T19:10:18.111Z,214.73
2019-03-18T19:12:46.964Z,210.53
2019-03-18T19:15:22.565Z,199.93
2019-03-18T19:17:51.317Z,207.30
2019-03-18T19:20:19.986Z,192.87
2019-03-18T19:22:48.576Z,191.60
2019-03-18T19:25:18.999Z,186.90
2019-03-18T19:27:47.328Z,183.57
2019-03-18T19:30:22.616Z,183.87
2019-03-18T19:32:50.915Z,181.93
2019-03-18T19:35:19.586Z,189.03
2019-03-18T19:37:48.173Z,174.20
2019-03-18T19:40:23.234Z,172.80
2019-03-18T19:42:51.879Z,167.13
2019-03-18T19:45:20.185Z,165.50
2019-03-18T19:47:48.837Z,168.53
2019-03-18T19:50:25.440Z,154.63
2019-03-18T19:52:53.749Z,169.27
2019-03-18T19:55:22.406Z,157.20
2019-03-18T19:57:50.719Z,146.27
2019-03-18T20:00:26.604Z,180.33
2019-03-18T20:02:55.399Z,260.30
2019-03-18T20:05:23.720Z,257.83
2019-03-18T20:07:52.463Z,237.10
2019-03-18T20:10:21.521Z,217.63
2019-03-18T20:12:49.866Z,204.70
2019-03-18T20:15:19.378Z,200.10
2019-03-18T20:17:48.020Z,201.67
2019-03-18T20:20:17.375Z,199.47
2019-03-18T20:22:48.343Z,191.57
2019-03-18T20:25:16.647Z,189.43
2019-03-18T20:27:45.222Z,195.97
2019-03-18T20:30:15.482Z,183.53
2019-03-18T20:32:44.238Z,205.80
2019-03-18T20:35:21.346Z,188.50
2019-03-18T20:37:51.933Z,175.43
2019-03-18T20:40:20.067Z,167.40
2019-03-18T20:42:48.410Z,170.00
2019-03-18T20:45:22.217Z,174.07
2019-03-18T20:47:50.533Z,177.13
2019-03-18T20:50:19.964Z,178.07
2019-03-18T20:52:48.288Z,175.77
2019-03-18T20:55:16.670Z,175.27
2019-03-18T20:57:45.318Z,171.63
2019-03-18T21:00:26.012Z,167.70
2019-03-18T21:02:54.308Z,160.77
2019-03-18T21:05:24.980Z,168.27
2019-03-18T21:07:52.972Z,340.43
2019-03-18T21:10:21.652Z,228.20
2019-03-18T21:12:50.117Z,222.87
2019-03-18T21:15:18.849Z,269.83
2019-03-18T21:17:47.423Z,268.07
2019-03-18T21:20:18.285Z,294.90
2019-03-18T21:22:46.607Z,275.67
2019-03-18T21:25:14.924Z,272.47
2019-03-18T21:27:43.517Z,263.90
2019-03-18T21:30:14.779Z,254.50
2019-03-18T21:32:43.526Z,241.17
2019-03-18T21:35:12.212Z,227.43
2019-03-18T21:37:40.789Z,224.20
2019-03-18T21:40:14.599Z,215.97
2019-03-18T21:42:43.199Z,219.00
2019-03-18T21:45:19.587Z,231.63
2019-03-18T21:47:48.233Z,219.77
2019-03-18T21:50:17.040Z,202.43
2019-03-18T21:52:45.848Z,225.13
2019-03-18T21:55:15.036Z,252.43
2019-03-18T21:57:43.715Z,250.37
2019-03-18T22:00:18.727Z,243.50
2019-03-18T22:02:47.328Z,253.43
2019-03-18T22:05:16.079Z,239.63
2019-03-18T22:07:44.475Z,236.80
2019-03-18T22:10:19.224Z,222.13
2019-03-18T22:12:50.010Z,202.40
2019-03-18T22:15:18.810Z,212.17
2019-03-18T22:17:47.522Z,198.77
2019-03-18T22:20:18.040Z,189.87
2019-03-18T22:22:46.839Z,187.13
2019-03-18T22:25:16.937Z,186.53
2019-03-18T22:27:45.796Z,182.70
2019-03-18T22:30:16.697Z,186.70
2019-03-18T22:32:45.118Z,175.70
2019-03-18T22:35:13.758Z,174.60
2019-03-18T22:37:42.067Z,181.20
2019-03-18T22:40:11.814Z,169.90
2019-03-18T22:42:40.733Z,157.20
2019-03-18T22:45:13.048Z,155.73
2019-03-18T22:47:41.803Z,155.73
2019-03-18T22:50:11.454Z,148.90
2019-03-18T22:52:40.115Z,150.77
2019-03-18T22:55:12.152Z,164.23
2019-03-18T22:57:40.446Z,181.87
2019-03-18T23:00:27.543Z,205.37
2019-03-18T23:02:58.273Z,207.07
2019-03-18T23:05:26.629Z,200.77
2019-03-18T23:07:57.878Z,201.27
2019-03-18T23:10:26.175Z,199.50
2019-03-18T23:12:54.498Z,189.57
2019-03-18T23:15:23.141Z,186.23
2019-03-18T23:17:51.459Z,190.57
2019-03-18T23:20:19.779Z,183.60
2019-03-18T23:22:48.889Z,182.97
2019-03-18T23:25:17.683Z,168.83
2019-03-18T23:27:46.172Z,163.53
2019-03-18T23:30:15.318Z,153.67
2019-03-18T23:32:44.090Z,160.63
2019-03-18T23:35:12.602Z,176.67
2019-03-18T23:37:41.635Z,198.37
2019-03-18T23:40:12.154Z,197.90
2019-03-18T23:42:40.455Z,182.77
2019-03-18T23:45:09.599Z,174.10
2019-03-18T23:47:37.965Z,171.33
2019-03-18T23:50:09.966Z,169.83
2019-03-18T23:52:38.354Z,164.43
2019-03-18T23:55:18.939Z,169.27
2019-03-18T23:57:40.577Z,172.07
